createdAt,value
2018-06-30T00:00:41.984Z,0.00
2018-06-30T00:01:41.947Z,0.00
2018-06-30T00:02:41.900Z,0.00
2018-06-30T00:03:41.857Z,0.00
2018-06-30T00:04:41.815Z,0.00
2018-06-30T00:05:41.771Z,0.00
2018-06-30T00:06:41.729Z,0.00
2018-06-30T00:07:41.687Z,0.00
2018-06-30T00:08:41.645Z,0.00
2018-06-30T00:09:41.601Z,0.00
2018-06-30T00:10:41.559Z,0.00
2018-06-30T00:11:41.518Z,0.00
2018-06-30T00:12:41.477Z,0.00
2018-06-30T00:13:41.432Z,0.00
2018-06-30T00:14:41.388Z,0.00
2018-06-30T00:15:41.347Z,0.00
2018-06-30T00:16:41.306Z,0.00
2018-06-30T00:17:41.264Z,0.00
2018-06-30T00:18:41.221Z,0.00
2018-06-30T00:19:41.178Z,0.00
2018-06-30T00:20:41.135Z,0.00
2018-06-30T00:21:41.094Z,0.00
2018-06-30T00:22:41.049Z,0.00
2018-06-30T00:23:41.007Z,0.00
2018-06-30T00:24:41.015Z,0.00
2018-06-30T00:25:40.921Z,0.00
2018-06-30T00:26:40.878Z,0.00
2018-06-30T00:27:40.836Z,0.00
2018-06-30T00:28:40.795Z,0.00
2018-06-30T00:29:40.755Z,0.00
2018-06-30T00:30:40.708Z,0.00
2018-06-30T00:31:40.667Z,0.00
2018-06-30T00:32:40.623Z,0.00
2018-06-30T00:33:40.580Z,0.00
2018-06-30T00:34:40.538Z,0.00
2018-06-30T00:35:40.495Z,0.00
2018-06-30T00:36:40.454Z,0.00
2018-06-30T00:37:40.409Z,0.00
2018-06-30T00:38:40.370Z,0.00
2018-06-30T00:39:40.327Z,0.00
2018-06-30T00:40:40.284Z,0.00
2018-06-30T00:41:40.239Z,0.00
2018-06-30T00:42:40.197Z,0.00
2018-06-30T00:43:40.157Z,0.00
2018-06-30T00:44:40.114Z,0.00
2018-06-30T00:45:40.069Z,0.00
2018-06-30T00:46:40.028Z,0.00
2018-06-30T00:47:39.985Z,0.00
2018-06-30T00:48:40.092Z,0.00
2018-06-30T00:49:39.898Z,0.00
2018-06-30T00:50:39.856Z,0.00
2018-06-30T00:51:39.813Z,0.00
2018-06-30T00:52:39.772Z,0.00
2018-06-30T00:53:39.729Z,0.00
2018-06-30T00:54:39.686Z,0.00
2018-06-30T00:55:39.649Z,0.00
2018-06-30T00:56:39.600Z,0.00
2018-06-30T00:57:39.556Z,0.00
2018-06-30T00:58:39.514Z,0.00
2018-06-30T00:59:39.471Z,0.00
2018-06-30T01:00:39.429Z,0.00
2018-06-30T01:01:39.385Z,0.00
2018-06-30T01:02:39.343Z,0.00
2018-06-30T01:03:39.301Z,0.00
2018-06-30T01:04:39.258Z,0.00
2018-06-30T01:05:39.214Z,0.00
2018-06-30T01:06:39.172Z,0.00
2018-06-30T01:07:39.129Z,0.00
2018-06-30T01:08:39.087Z,0.00
2018-06-30T01:09:39.043Z,0.00
2018-06-30T01:10:39.001Z,0.00
2018-06-30T01:11:38.958Z,0.00
2018-06-30T01:12:38.915Z,0.00
2018-06-30T01:13:38.872Z,0.00
2018-06-30T01:14:38.829Z,0.00
2018-06-30T01:15:38.787Z,0.00
2018-06-30T01:16:38.795Z,0.00
2018-06-30T01:17:38.701Z,0.00
2018-06-30T01:18:38.658Z,0.00
2018-06-30T01:19:38.617Z,0.00
2018-06-30T01:20:38.573Z,0.00
2018-06-30T01:21:38.530Z,0.00
2018-06-30T01:22:38.487Z,0.00
2018-06-30T01:23:38.445Z,0.00
2018-06-30T01:24:38.402Z,0.00
2018-06-30T01:25:38.358Z,0.00
2018-06-30T01:26:38.316Z,0.00
2018-06-30T01:27:38.277Z,0.00
2018-06-30T01:28:38.231Z,0.00
2018-06-30T01:29:38.187Z,0.00
2018-06-30T01:30:38.145Z,0.00
2018-06-30T01:31:38.102Z,0.00
2018-06-30T01:32:38.065Z,0.00
2018-06-30T01:33:38.021Z,0.00
2018-06-30T01:34:37.974Z,0.00
2018-06-30T01:35:37.931Z,0.00
2018-06-30T01:36:37.888Z,0.00
2018-06-30T01:37:37.845Z,0.00
2018-06-30T01:38:37.805Z,0.00
2018-06-30T01:39:37.760Z,0.00
2018-06-30T01:40:37.717Z,0.00
2018-06-30T01:41:37.673Z,0.00
2018-06-30T01:42:37.634Z,0.00
2018-06-30T01:43:37.588Z,0.00
2018-06-30T01:44:37.546Z,0.00
2018-06-30T01:45:37.502Z,0.00
2018-06-30T01:46:37.459Z,0.00
2018-06-30T01:47:37.416Z,0.00
2018-06-30T01:48:37.374Z,0.00
2018-06-30T01:49:37.330Z,0.00
2018-06-30T01:50:37.288Z,0.00
2018-06-30T01:51:37.249Z,0.00
2018-06-30T01:52:37.202Z,0.00
2018-06-30T01:53:37.159Z,0.00
2018-06-30T01:54:37.116Z,0.00
2018-06-30T01:55:37.073Z,0.00
2018-06-30T01:56:37.030Z,0.00
2018-06-30T01:57:36.987Z,0.00
2018-06-30T01:58:36.944Z,0.00
2018-06-30T01:59:36.901Z,0.00
2018-06-30T02:00:36.859Z,0.00
2018-06-30T02:01:36.815Z,0.00
2018-06-30T02:02:36.772Z,0.00
2018-06-30T02:03:36.730Z,0.00
2018-06-30T02:04:36.690Z,0.00
2018-06-30T02:05:36.643Z,0.00
2018-06-30T02:06:36.601Z,0.00
2018-06-30T02:07:36.558Z,0.00
2018-06-30T02:08:36.515Z,0.00
2018-06-30T02:09:36.472Z,0.00
2018-06-30T02:10:36.481Z,0.00
2018-06-30T02:11:36.386Z,0.00
2018-06-30T02:12:36.343Z,0.00
2018-06-30T02:13:36.299Z,0.00
2018-06-30T02:14:36.257Z,0.00
2018-06-30T02:15:36.216Z,0.00
2018-06-30T02:16:36.171Z,0.00
2018-06-30T02:17:36.128Z,0.00
2018-06-30T02:18:36.085Z,0.00
2018-06-30T02:19:36.042Z,0.00
2018-06-30T02:20:36.001Z,0.00
2018-06-30T02:21:36.002Z,0.00
2018-06-30T02:22:35.913Z,0.00
2018-06-30T02:23:35.871Z,0.00
2018-06-30T02:24:35.828Z,0.00
2018-06-30T02:25:35.785Z,0.00
2018-06-30T02:26:35.741Z,0.00
2018-06-30T02:27:35.748Z,0.00
2018-06-30T02:28:35.755Z,0.00
2018-06-30T02:29:35.611Z,0.00
2018-06-30T02:30:35.569Z,0.00
2018-06-30T02:31:35.526Z,0.00
2018-06-30T02:32:35.483Z,0.00
2018-06-30T02:33:35.440Z,0.00
2018-06-30T02:34:35.414Z,0.00
2018-06-30T02:35:35.359Z,0.00
2018-06-30T02:36:35.311Z,0.00
2018-06-30T02:37:35.270Z,0.00
2018-06-30T02:38:35.224Z,0.00
2018-06-30T02:39:35.182Z,0.00
2018-06-30T02:40:35.146Z,0.00
2018-06-30T02:41:35.096Z,0.00
2018-06-30T02:42:35.052Z,0.00
2018-06-30T02:43:35.009Z,0.00
2018-06-30T02:44:34.967Z,0.00
2018-06-30T02:45:34.923Z,0.00
2018-06-30T02:46:34.882Z,0.00
2018-06-30T02:47:34.837Z,0.00
2018-06-30T02:48:34.794Z,0.00
2018-06-30T02:49:34.750Z,0.00
2018-06-30T02:50:34.759Z,0.00
2018-06-30T02:51:34.665Z,0.00
2018-06-30T02:52:34.621Z,0.00
2018-06-30T02:53:34.578Z,0.00
2018-06-30T02:54:34.534Z,0.00
2018-06-30T02:55:34.492Z,0.00
2018-06-30T02:56:34.454Z,0.00
2018-06-30T02:57:34.407Z,0.00
2018-06-30T02:58:34.362Z,0.00
2018-06-30T02:59:34.319Z,0.00
2018-06-30T03:00:34.276Z,0.00
2018-06-30T03:01:34.237Z,0.00
2018-06-30T03:02:34.191Z,0.00
2018-06-30T03:03:34.146Z,0.00
2018-06-30T03:04:34.104Z,0.00
2018-06-30T03:05:34.059Z,0.00
2018-06-30T03:06:34.020Z,0.00
2018-06-30T03:07:33.973Z,0.00
2018-06-30T03:08:33.931Z,0.00
2018-06-30T03:09:33.894Z,0.00
2018-06-30T03:10:33.845Z,0.00
2018-06-30T03:11:33.803Z,0.00
2018-06-30T03:12:33.758Z,0.00
2018-06-30T03:13:33.714Z,0.00
2018-06-30T03:14:33.672Z,0.00
2018-06-30T03:15:33.628Z,0.00
2018-06-30T03:16:33.586Z,0.00
2018-06-30T03:17:33.542Z,0.00
2018-06-30T03:18:33.498Z,0.00
2018-06-30T03:19:33.456Z,0.00
2018-06-30T03:20:33.413Z,0.00
2018-06-30T03:21:33.369Z,0.00
2018-06-30T03:22:33.326Z,0.00
2018-06-30T03:23:33.288Z,0.00
2018-06-30T03:24:33.240Z,0.00
2018-06-30T03:25:33.196Z,0.00
2018-06-30T03:26:33.152Z,0.00
2018-06-30T03:27:33.110Z,0.00
2018-06-30T03:28:33.067Z,0.00
2018-06-30T03:29:33.029Z,0.00
2018-06-30T03:30:32.980Z,0.00
2018-06-30T03:31:33.020Z,0.00
2018-06-30T03:32:32.895Z,0.00
2018-06-30T03:33:32.890Z,0.00
2018-06-30T03:34:32.806Z,0.00
2018-06-30T03:35:32.764Z,0.00
2018-06-30T03:36:32.720Z,0.00
2018-06-30T03:37:32.676Z,0.00
2018-06-30T03:38:32.697Z,0.00
2018-06-30T03:39:32.590Z,0.00
2018-06-30T03:40:32.547Z,0.00
2018-06-30T03:41:32.503Z,0.00
2018-06-30T03:42:32.460Z,0.00
2018-06-30T03:43:32.417Z,0.00
2018-06-30T03:44:32.374Z,0.00
2018-06-30T03:45:32.330Z,0.00
2018-06-30T03:46:32.287Z,0.00
2018-06-30T03:47:32.244Z,0.00
2018-06-30T03:48:32.201Z,0.00
2018-06-30T03:49:32.157Z,0.00
2018-06-30T03:50:32.114Z,0.00
2018-06-30T03:51:32.070Z,0.00
2018-06-30T03:52:32.033Z,0.00
2018-06-30T03:53:31.984Z,0.00
2018-06-30T03:54:31.980Z,0.00
2018-06-30T03:55:31.897Z,0.00
2018-06-30T03:56:31.854Z,0.00
2018-06-30T03:57:31.810Z,0.00
2018-06-30T03:58:31.766Z,0.00
2018-06-30T03:59:31.723Z,0.00
2018-06-30T04:00:31.681Z,0.00
2018-06-30T04:01:31.636Z,0.00
2018-06-30T04:02:31.593Z,0.00
2018-06-30T04:03:31.550Z,0.00
2018-06-30T04:04:31.507Z,0.00
2018-06-30T04:05:31.462Z,0.00
2018-06-30T04:06:31.420Z,0.00
2018-06-30T04:07:31.377Z,0.00
2018-06-30T04:08:31.335Z,0.00
2018-06-30T04:09:31.289Z,0.00
2018-06-30T04:10:31.246Z,0.00
2018-06-30T04:11:31.204Z,0.00
2018-06-30T04:12:31.160Z,0.00
2018-06-30T04:13:31.116Z,0.00
2018-06-30T04:14:31.073Z,0.00
2018-06-30T04:15:31.035Z,0.00
2018-06-30T04:16:30.986Z,0.00
2018-06-30T04:17:30.942Z,0.00
2018-06-30T04:18:30.899Z,0.00
2018-06-30T04:19:30.857Z,0.00
2018-06-30T04:20:30.812Z,0.00
2018-06-30T04:21:30.768Z,0.00
2018-06-30T04:22:30.725Z,0.00
2018-06-30T04:23:30.682Z,0.00
2018-06-30T04:24:30.647Z,0.00
2018-06-30T04:25:30.661Z,0.00
2018-06-30T04:26:30.551Z,0.00
2018-06-30T04:27:30.511Z,0.00
2018-06-30T04:28:30.465Z,0.00
2018-06-30T04:29:30.421Z,0.00
2018-06-30T04:30:30.379Z,0.00
2018-06-30T04:31:30.335Z,0.00
2018-06-30T04:32:30.291Z,0.00
2018-06-30T04:33:30.246Z,0.00
2018-06-30T04:34:30.204Z,0.00
2018-06-30T04:35:30.160Z,0.00
2018-06-30T04:36:30.117Z,0.00
2018-06-30T04:37:30.073Z,4.00
2018-06-30T04:38:30.032Z,4.00
2018-06-30T04:39:29.986Z,4.00
2018-06-30T04:40:29.943Z,4.00
2018-06-30T04:41:29.899Z,4.00
2018-06-30T04:42:29.859Z,4.00
2018-06-30T04:43:29.812Z,4.00
2018-06-30T04:44:29.769Z,4.00
2018-06-30T04:45:29.725Z,4.00
2018-06-30T04:46:29.683Z,4.00
2018-06-30T04:47:29.653Z,4.00
2018-06-30T04:48:29.598Z,8.00
2018-06-30T04:49:29.552Z,8.00
2018-06-30T04:50:29.508Z,8.00
2018-06-30T04:51:29.465Z,8.00
2018-06-30T04:52:29.422Z,8.00
2018-06-30T04:53:29.380Z,4.00
2018-06-30T04:54:29.335Z,4.00
2018-06-30T04:55:29.291Z,4.00
2018-06-30T04:56:29.248Z,8.00
2018-06-30T04:57:29.222Z,8.00
2018-06-30T04:58:29.161Z,8.00
2018-06-30T04:59:29.118Z,8.00
2018-06-30T05:00:29.075Z,8.00
2018-06-30T05:01:29.030Z,8.00
2018-06-30T05:02:28.988Z,8.00
2018-06-30T05:03:28.944Z,8.00
2018-06-30T05:04:28.901Z,8.00
2018-06-30T05:05:28.857Z,8.00
2018-06-30T05:06:28.814Z,8.00
2018-06-30T05:07:28.770Z,8.00
2018-06-30T05:08:28.727Z,8.00
2018-06-30T05:09:28.684Z,8.00
2018-06-30T05:10:28.640Z,4.00
2018-06-30T05:11:28.597Z,4.00
2018-06-30T05:12:28.561Z,8.00
2018-06-30T05:13:28.510Z,8.00
2018-06-30T05:14:28.467Z,8.00
2018-06-30T05:15:28.424Z,8.00
2018-06-30T05:16:28.381Z,8.00
2018-06-30T05:17:28.337Z,8.00
2018-06-30T05:18:28.293Z,8.00
2018-06-30T05:19:28.250Z,8.00
2018-06-30T05:20:28.208Z,8.00
2018-06-30T05:21:28.163Z,8.00
2018-06-30T05:22:28.122Z,8.00
2018-06-30T05:23:28.077Z,12.00
2018-06-30T05:24:28.036Z,12.00
2018-06-30T05:25:27.990Z,8.00
2018-06-30T05:26:27.947Z,8.00
2018-06-30T05:27:27.904Z,8.00
2018-06-30T05:28:27.861Z,8.00
2018-06-30T05:29:27.817Z,8.00
2018-06-30T05:30:27.774Z,8.00
2018-06-30T05:31:27.735Z,8.00
2018-06-30T05:32:27.688Z,8.00
2018-06-30T05:33:27.826Z,8.00
2018-06-30T05:34:27.601Z,12.00
2018-06-30T05:35:27.561Z,12.00
2018-06-30T05:36:27.515Z,12.00
2018-06-30T05:37:27.473Z,12.00
2018-06-30T05:38:27.435Z,12.00
2018-06-30T05:39:27.386Z,12.00
2018-06-30T05:40:27.345Z,12.00
2018-06-30T05:41:27.307Z,12.00
2018-06-30T05:42:27.255Z,8.00
2018-06-30T05:43:27.213Z,8.00
2018-06-30T05:44:27.170Z,8.00
2018-06-30T05:45:27.126Z,8.00
2018-06-30T05:46:27.087Z,8.00
2018-06-30T05:47:27.040Z,8.00
2018-06-30T05:48:26.998Z,8.00
2018-06-30T05:49:26.953Z,8.00
2018-06-30T05:50:26.913Z,8.00
2018-06-30T05:51:26.868Z,8.00
2018-06-30T05:52:26.825Z,8.00
2018-06-30T05:53:26.782Z,8.00
2018-06-30T05:54:26.743Z,8.00
2018-06-30T05:55:26.707Z,8.00
2018-06-30T05:56:26.703Z,8.00
2018-06-30T05:57:26.609Z,8.00
2018-06-30T05:58:26.567Z,8.00
2018-06-30T05:59:26.563Z,8.00
2018-06-30T06:00:26.482Z,8.00
2018-06-30T06:01:26.537Z,8.00
2018-06-30T06:02:26.395Z,12.00
2018-06-30T06:03:26.352Z,12.00
2018-06-30T06:04:26.309Z,12.00
2018-06-30T06:05:26.271Z,12.00
2018-06-30T06:06:26.225Z,12.00
2018-06-30T06:07:26.180Z,12.00
2018-06-30T06:08:26.138Z,12.00
2018-06-30T06:09:26.094Z,12.00
2018-06-30T06:10:26.054Z,12.00
2018-06-30T06:11:26.009Z,12.00
2018-06-30T06:12:25.966Z,12.00
2018-06-30T06:13:25.973Z,12.00
2018-06-30T06:14:25.929Z,12.00
2018-06-30T06:15:25.995Z,12.00
2018-06-30T06:16:25.795Z,12.00
2018-06-30T06:17:25.752Z,12.00
2018-06-30T06:18:25.709Z,12.00
2018-06-30T06:19:25.670Z,12.00
2018-06-30T06:20:25.624Z,12.00
2018-06-30T06:21:25.581Z,12.00
2018-06-30T06:22:25.538Z,12.00
2018-06-30T06:23:25.496Z,12.00
2018-06-30T06:24:25.454Z,12.00
2018-06-30T06:25:25.410Z,12.00
2018-06-30T06:26:25.368Z,12.00
2018-06-30T06:27:25.345Z,12.00
2018-06-30T06:28:25.284Z,12.00
2018-06-30T06:29:25.239Z,12.00
2018-06-30T06:30:25.199Z,12.00
2018-06-30T06:31:25.155Z,12.00
2018-06-30T06:32:25.114Z,12.00
2018-06-30T06:33:25.075Z,12.00
2018-06-30T06:34:25.027Z,12.00
2018-06-30T06:35:24.984Z,12.00
2018-06-30T06:36:24.942Z,12.00
2018-06-30T06:37:24.898Z,12.00
2018-06-30T06:38:24.856Z,12.00
2018-06-30T06:39:24.814Z,12.00
2018-06-30T06:40:24.778Z,12.00
2018-06-30T06:41:24.729Z,12.00
2018-06-30T06:42:24.687Z,12.00
2018-06-30T06:43:24.647Z,12.00
2018-06-30T06:44:24.602Z,12.00
2018-06-30T06:45:24.559Z,12.00
2018-06-30T06:46:24.516Z,12.00
2018-06-30T06:47:24.474Z,12.00
2018-06-30T06:48:24.433Z,12.00
2018-06-30T06:49:24.396Z,12.00
2018-06-30T06:50:24.347Z,12.00
2018-06-30T06:51:24.305Z,12.00
2018-06-30T06:52:24.269Z,12.00
2018-06-30T06:53:24.220Z,12.00
2018-06-30T06:54:24.178Z,12.00
2018-06-30T06:55:24.136Z,12.00
2018-06-30T06:56:24.156Z,12.00
2018-06-30T06:57:24.051Z,16.00
2018-06-30T06:58:24.009Z,12.00
2018-06-30T06:59:23.967Z,12.00
2018-06-30T07:00:23.925Z,12.00
2018-06-30T07:01:23.882Z,12.00
2018-06-30T07:02:23.840Z,12.00
2018-06-30T07:03:23.798Z,16.00
2018-06-30T07:04:23.759Z,16.00
2018-06-30T07:05:23.714Z,16.00
2018-06-30T07:06:23.672Z,16.00
2018-06-30T07:07:23.629Z,16.00
2018-06-30T07:08:23.588Z,16.00
2018-06-30T07:09:23.544Z,16.00
2018-06-30T07:10:23.503Z,16.00
2018-06-30T07:11:23.467Z,16.00
2018-06-30T07:12:23.419Z,16.00
2018-06-30T07:13:23.376Z,12.00
2018-06-30T07:14:23.335Z,12.00
2018-06-30T07:15:23.295Z,12.00
2018-06-30T07:16:23.251Z,16.00
2018-06-30T07:17:23.208Z,16.00
2018-06-30T07:18:23.218Z,16.00
2018-06-30T07:19:23.125Z,16.00
2018-06-30T07:20:23.083Z,16.00
2018-06-30T07:21:23.040Z,16.00
2018-06-30T07:22:23.000Z,16.00
2018-06-30T07:23:22.963Z,16.00
2018-06-30T07:24:22.914Z,16.00
2018-06-30T07:25:22.872Z,16.00
2018-06-30T07:26:22.831Z,16.00
2018-06-30T07:27:22.789Z,16.00
2018-06-30T07:28:22.747Z,16.00
2018-06-30T07:29:22.705Z,16.00
2018-06-30T07:30:22.663Z,20.00
2018-06-30T07:31:22.621Z,20.00
2018-06-30T07:32:22.580Z,16.00
2018-06-30T07:33:22.563Z,16.00
2018-06-30T07:34:22.530Z,16.00
2018-06-30T07:35:22.454Z,16.00
2018-06-30T07:36:22.412Z,16.00
2018-06-30T07:37:22.412Z,16.00
2018-06-30T07:38:22.328Z,16.00
2018-06-30T07:39:22.288Z,16.00
2018-06-30T07:40:22.245Z,16.00
2018-06-30T07:41:22.202Z,20.00
2018-06-30T07:42:22.161Z,16.00
2018-06-30T07:43:22.119Z,12.00
2018-06-30T07:44:22.076Z,16.00
2018-06-30T07:45:22.035Z,16.00
2018-06-30T07:46:21.994Z,16.00
2018-06-30T07:47:21.952Z,16.00
2018-06-30T07:48:21.910Z,20.00
2018-06-30T07:49:21.868Z,20.00
2018-06-30T07:50:21.830Z,20.00
2018-06-30T07:51:21.785Z,20.00
2018-06-30T07:52:21.746Z,20.00
2018-06-30T07:53:21.701Z,20.00
2018-06-30T07:54:21.660Z,24.00
2018-06-30T07:55:21.619Z,20.00
2018-06-30T07:56:21.577Z,20.00
2018-06-30T07:57:21.534Z,20.00
2018-06-30T07:58:21.496Z,20.00
2018-06-30T07:59:21.451Z,24.00
2018-06-30T08:00:21.413Z,24.00
2018-06-30T08:01:21.371Z,24.00
2018-06-30T08:02:21.326Z,24.00
2018-06-30T08:03:21.286Z,20.00
2018-06-30T08:04:21.243Z,20.00
2018-06-30T08:05:21.201Z,24.00
2018-06-30T08:06:21.160Z,24.00
2018-06-30T08:07:21.122Z,24.00
2018-06-30T08:08:21.077Z,24.00
2018-06-30T08:09:21.035Z,28.00
2018-06-30T08:10:20.994Z,24.00
2018-06-30T08:11:20.953Z,24.00
2018-06-30T08:12:20.912Z,28.00
2018-06-30T08:13:20.869Z,24.00
2018-06-30T08:14:20.835Z,28.00
2018-06-30T08:15:20.788Z,28.00
2018-06-30T08:16:20.746Z,24.00
2018-06-30T08:17:20.704Z,28.00
2018-06-30T08:18:20.663Z,28.00
2018-06-30T08:19:20.623Z,28.00
2018-06-30T08:20:20.581Z,28.00
2018-06-30T08:21:20.540Z,28.00
2018-06-30T08:22:20.498Z,28.00
2018-06-30T08:23:20.457Z,24.00
2018-06-30T08:24:20.417Z,28.00
2018-06-30T08:25:20.375Z,28.00
2018-06-30T08:26:20.334Z,8.00
2018-06-30T08:27:20.293Z,16.00
2018-06-30T08:28:20.253Z,28.00
2018-06-30T08:29:20.211Z,16.00
2018-06-30T08:30:20.170Z,28.00
2018-06-30T08:31:20.130Z,20.00
2018-06-30T08:32:20.089Z,24.00
2018-06-30T08:33:20.050Z,4.00
2018-06-30T08:34:20.057Z,4.00
2018-06-30T08:35:19.966Z,4.00
2018-06-30T08:36:20.009Z,32.00
2018-06-30T08:37:19.885Z,4.00
2018-06-30T08:38:19.844Z,4.00
2018-06-30T08:39:19.804Z,4.00
2018-06-30T08:40:19.763Z,4.00
2018-06-30T08:41:19.721Z,4.00
2018-06-30T08:42:19.681Z,0.00
2018-06-30T08:43:19.640Z,4.00
2018-06-30T08:44:19.600Z,4.00
2018-06-30T08:45:19.559Z,32.00
2018-06-30T08:46:19.518Z,28.00
2018-06-30T08:47:19.478Z,32.00
2018-06-30T08:48:19.437Z,32.00
2018-06-30T08:49:19.398Z,4.00
2018-06-30T08:50:19.360Z,28.00
2018-06-30T08:51:19.315Z,32.00
2018-06-30T08:52:19.306Z,20.00
2018-06-30T08:53:19.233Z,4.00
2018-06-30T08:54:19.193Z,4.00
2018-06-30T08:55:19.156Z,4.00
2018-06-30T08:56:19.115Z,4.00
2018-06-30T08:57:19.071Z,8.00
2018-06-30T08:58:19.031Z,4.00
2018-06-30T08:59:18.994Z,4.00
2018-06-30T09:00:19.002Z,4.00
2018-06-30T09:01:18.908Z,28.00
2018-06-30T09:02:18.868Z,16.00
2018-06-30T09:03:18.827Z,4.00
2018-06-30T09:04:18.787Z,8.00
2018-06-30T09:05:18.747Z,4.00
2018-06-30T09:06:18.764Z,8.00
2018-06-30T09:07:18.666Z,16.00
2018-06-30T09:08:18.625Z,16.00
2018-06-30T09:09:18.584Z,8.00
2018-06-30T09:10:18.544Z,8.00
2018-06-30T09:11:18.503Z,32.00
2018-06-30T09:12:18.506Z,28.00
2018-06-30T09:13:18.421Z,12.00
2018-06-30T09:14:18.380Z,28.00
2018-06-30T09:15:18.340Z,12.00
2018-06-30T09:16:18.366Z,32.00
2018-06-30T09:17:18.260Z,16.00
2018-06-30T09:18:18.218Z,4.00
2018-06-30T09:19:18.178Z,24.00
2018-06-30T09:20:18.215Z,4.00
2018-06-30T09:21:18.097Z,28.00
2018-06-30T09:22:18.060Z,28.00
2018-06-30T09:23:18.025Z,24.00
2018-06-30T09:24:18.094Z,28.00
2018-06-30T09:25:17.937Z,28.00
2018-06-30T09:26:17.895Z,28.00
2018-06-30T09:27:17.857Z,28.00
2018-06-30T09:28:17.815Z,28.00
2018-06-30T09:29:17.775Z,28.00
2018-06-30T09:30:17.741Z,24.00
2018-06-30T09:31:17.695Z,28.00
2018-06-30T09:32:17.655Z,24.00
2018-06-30T09:33:17.614Z,16.00
2018-06-30T09:34:17.575Z,16.00
2018-06-30T09:35:17.535Z,4.00
2018-06-30T09:36:17.496Z,12.00
2018-06-30T09:37:17.457Z,4.00
2018-06-30T09:38:17.415Z,4.00
2018-06-30T09:39:17.376Z,4.00
2018-06-30T09:40:17.336Z,4.00
2018-06-30T09:41:17.295Z,4.00
2018-06-30T09:42:17.255Z,4.00
2018-06-30T09:43:17.220Z,4.00
2018-06-30T09:44:17.238Z,4.00
2018-06-30T09:45:17.139Z,4.00
2018-06-30T09:46:17.095Z,4.00
2018-06-30T09:47:17.055Z,4.00
2018-06-30T09:48:17.016Z,4.00
2018-06-30T09:49:16.975Z,8.00
2018-06-30T09:50:16.946Z,12.00
2018-06-30T09:51:16.894Z,8.00
2018-06-30T09:52:16.855Z,4.00
2018-06-30T09:53:16.814Z,4.00
2018-06-30T09:54:16.774Z,8.00
2018-06-30T09:55:16.733Z,8.00
2018-06-30T09:56:16.694Z,4.00
2018-06-30T09:57:16.652Z,8.00
2018-06-30T09:58:16.612Z,0.00
2018-06-30T09:59:16.572Z,4.00
2018-06-30T10:00:16.532Z,4.00
2018-06-30T10:01:16.497Z,4.00
2018-06-30T10:02:16.451Z,8.00
2018-06-30T10:03:16.411Z,4.00
2018-06-30T10:04:16.369Z,4.00
2018-06-30T10:05:16.328Z,4.00
2018-06-30T10:06:16.292Z,8.00
2018-06-30T10:07:16.248Z,4.00
2018-06-30T10:08:16.208Z,4.00
2018-06-30T10:09:16.256Z,8.00
2018-06-30T10:10:16.126Z,4.00
2018-06-30T10:11:16.085Z,8.00
2018-06-30T10:12:16.045Z,8.00
2018-06-30T10:13:16.003Z,8.00
2018-06-30T10:14:15.963Z,8.00
2018-06-30T10:15:15.923Z,8.00
2018-06-30T10:16:15.882Z,4.00
2018-06-30T10:17:15.841Z,4.00
2018-06-30T10:18:15.800Z,4.00
2018-06-30T10:19:15.822Z,4.00
2018-06-30T10:20:15.720Z,8.00
2018-06-30T10:21:15.761Z,4.00
2018-06-30T10:22:15.637Z,8.00
2018-06-30T10:23:15.597Z,8.00
2018-06-30T10:24:15.556Z,4.00
2018-06-30T10:25:15.515Z,4.00
2018-06-30T10:26:15.474Z,8.00
2018-06-30T10:27:15.434Z,4.00
2018-06-30T10:28:15.393Z,4.00
2018-06-30T10:29:15.351Z,4.00
2018-06-30T10:30:15.311Z,4.00
2018-06-30T10:31:15.300Z,4.00
2018-06-30T10:32:15.230Z,4.00
2018-06-30T10:33:15.189Z,4.00
2018-06-30T10:34:15.148Z,4.00
2018-06-30T10:35:15.112Z,4.00
2018-06-30T10:36:15.072Z,4.00
2018-06-30T10:37:15.025Z,4.00
2018-06-30T10:38:14.985Z,4.00
2018-06-30T10:39:14.944Z,8.00
2018-06-30T10:40:14.903Z,4.00
2018-06-30T10:41:14.861Z,4.00
2018-06-30T10:42:14.865Z,4.00
2018-06-30T10:43:14.779Z,8.00
2018-06-30T10:44:14.739Z,8.00
2018-06-30T10:45:14.698Z,8.00
2018-06-30T10:46:14.657Z,4.00
2018-06-30T10:47:14.618Z,4.00
2018-06-30T10:48:14.576Z,4.00
2018-06-30T10:49:14.538Z,4.00
2018-06-30T10:50:14.493Z,4.00
2018-06-30T10:51:14.453Z,4.00
2018-06-30T10:52:14.412Z,8.00
2018-06-30T10:53:14.371Z,4.00
2018-06-30T10:54:14.430Z,4.00
2018-06-30T10:55:14.290Z,4.00
2018-06-30T10:56:14.252Z,4.00
2018-06-30T10:57:14.207Z,4.00
2018-06-30T10:58:14.166Z,4.00
2018-06-30T10:59:14.126Z,8.00
2018-06-30T11:00:14.138Z,4.00
2018-06-30T11:01:14.047Z,4.00
2018-06-30T11:02:14.003Z,4.00
2018-06-30T11:03:13.962Z,4.00
2018-06-30T11:04:13.953Z,0.00
2018-06-30T11:05:14.002Z,4.00
2018-06-30T11:06:13.839Z,0.00
2018-06-30T11:07:13.802Z,4.00
2018-06-30T11:08:13.758Z,4.00
2018-06-30T11:09:13.715Z,8.00
2018-06-30T11:10:13.675Z,4.00
2018-06-30T11:11:13.638Z,8.00
2018-06-30T11:12:13.596Z,4.00
2018-06-30T11:13:13.553Z,4.00
2018-06-30T11:14:13.512Z,8.00
2018-06-30T11:15:13.471Z,4.00
2018-06-30T11:16:13.430Z,4.00
2018-06-30T11:17:13.388Z,4.00
2018-06-30T11:18:13.347Z,4.00
2018-06-30T11:19:13.306Z,4.00
2018-06-30T11:20:13.316Z,4.00
2018-06-30T11:21:13.228Z,4.00
2018-06-30T11:22:13.183Z,4.00
2018-06-30T11:23:13.142Z,4.00
2018-06-30T11:24:13.103Z,4.00
2018-06-30T11:25:13.060Z,4.00
2018-06-30T11:26:13.019Z,4.00
2018-06-30T11:27:12.978Z,4.00
2018-06-30T11:28:12.937Z,4.00
2018-06-30T11:29:12.895Z,4.00
2018-06-30T11:30:12.856Z,4.00
2018-06-30T11:31:12.814Z,8.00
2018-06-30T11:32:12.773Z,4.00
2018-06-30T11:33:12.730Z,4.00
2018-06-30T11:34:12.690Z,4.00
2018-06-30T11:35:12.648Z,0.00
2018-06-30T11:36:12.608Z,4.00
2018-06-30T11:37:12.567Z,4.00
2018-06-30T11:38:12.526Z,4.00
2018-06-30T11:39:12.485Z,0.00
2018-06-30T11:40:12.445Z,4.00
2018-06-30T11:41:12.404Z,4.00
2018-06-30T11:42:12.361Z,4.00
2018-06-30T11:43:12.327Z,4.00
2018-06-30T11:44:12.283Z,4.00
2018-06-30T11:45:12.237Z,4.00
2018-06-30T11:46:12.199Z,8.00
2018-06-30T11:47:12.156Z,4.00
2018-06-30T11:48:12.115Z,4.00
2018-06-30T11:49:12.073Z,4.00
2018-06-30T11:50:12.033Z,4.00
2018-06-30T11:51:11.992Z,4.00
2018-06-30T11:52:11.950Z,4.00
2018-06-30T11:53:11.908Z,4.00
2018-06-30T11:54:11.868Z,4.00
2018-06-30T11:55:11.828Z,4.00
2018-06-30T11:56:11.786Z,4.00
2018-06-30T11:57:11.744Z,4.00
2018-06-30T11:58:11.704Z,8.00
2018-06-30T11:59:11.663Z,4.00
2018-06-30T12:00:11.623Z,4.00
2018-06-30T12:01:11.580Z,4.00
2018-06-30T12:02:11.602Z,4.00
2018-06-30T12:03:11.499Z,4.00
2018-06-30T12:04:11.457Z,4.00
2018-06-30T12:05:11.424Z,4.00
2018-06-30T12:06:11.374Z,0.00
2018-06-30T12:07:11.335Z,0.00
2018-06-30T12:08:11.297Z,0.00
2018-06-30T12:09:11.307Z,0.00
2018-06-30T12:10:11.210Z,0.00
2018-06-30T12:11:11.173Z,0.00
2018-06-30T12:12:11.127Z,0.00
2018-06-30T12:13:11.086Z,0.00
2018-06-30T12:14:11.045Z,4.00
2018-06-30T12:15:11.004Z,4.00
2018-06-30T12:16:10.963Z,4.00
2018-06-30T12:17:10.921Z,4.00
2018-06-30T12:18:10.881Z,4.00
2018-06-30T12:19:10.839Z,4.00
2018-06-30T12:20:10.798Z,4.00
2018-06-30T12:21:10.756Z,4.00
2018-06-30T12:22:10.717Z,4.00
2018-06-30T12:23:10.674Z,4.00
2018-06-30T12:24:10.633Z,4.00
2018-06-30T12:25:10.592Z,4.00
2018-06-30T12:26:10.605Z,4.00
2018-06-30T12:27:10.516Z,4.00
2018-06-30T12:28:10.468Z,4.00
2018-06-30T12:29:10.426Z,4.00
2018-06-30T12:30:10.385Z,4.00
2018-06-30T12:31:10.345Z,0.00
2018-06-30T12:32:10.348Z,0.00
2018-06-30T12:33:10.261Z,4.00
2018-06-30T12:34:10.221Z,4.00
2018-06-30T12:35:10.182Z,4.00
2018-06-30T12:36:10.142Z,4.00
2018-06-30T12:37:10.098Z,4.00
2018-06-30T12:38:10.056Z,4.00
2018-06-30T12:39:10.041Z,4.00
2018-06-30T12:40:09.975Z,4.00
2018-06-30T12:41:09.933Z,0.00
2018-06-30T12:42:09.891Z,4.00
2018-06-30T12:43:09.850Z,0.00
2018-06-30T12:44:09.813Z,0.00
2018-06-30T12:45:09.768Z,0.00
2018-06-30T12:46:09.731Z,0.00
2018-06-30T12:47:09.687Z,0.00
2018-06-30T12:48:09.644Z,0.00
2018-06-30T12:49:09.603Z,0.00
2018-06-30T12:50:09.561Z,4.00
2018-06-30T12:51:09.520Z,0.00
2018-06-30T12:52:09.479Z,4.00
2018-06-30T12:53:09.444Z,4.00
2018-06-30T12:54:09.407Z,4.00
2018-06-30T12:55:09.357Z,4.00
2018-06-30T12:56:09.318Z,4.00
2018-06-30T12:57:09.275Z,4.00
2018-06-30T12:58:09.231Z,4.00
2018-06-30T12:59:09.190Z,4.00
2018-06-30T13:00:09.149Z,4.00
2018-06-30T13:01:09.107Z,4.00
2018-06-30T13:02:09.069Z,4.00
2018-06-30T13:03:09.025Z,4.00
2018-06-30T13:04:08.984Z,4.00
2018-06-30T13:05:08.947Z,4.00
2018-06-30T13:06:08.903Z,4.00
2018-06-30T13:07:08.863Z,4.00
2018-06-30T13:08:08.820Z,4.00
2018-06-30T13:09:08.817Z,4.00
2018-06-30T13:10:08.736Z,4.00
2018-06-30T13:11:08.695Z,0.00